sensor_id;sensor_type;location;lat;lon;timestamp;P1;durP1;ratioP1;P2;durP2;ratioP2
4391;SDS011;2210;51.938;8.488;2023-08-20T00:00:20;14.20;;;11.90;;
4391;SDS011;2210;51.938;8.488;2023-08-20T00:04:20;18.10;;;11.87;;
4391;SDS011;2210;51.938;8.488;2023-08-20T00:08:26;14.10;;;11.07;;
4391;SDS011;2210;51.938;8.488;2023-08-20T00:12:26;13.77;;;11.10;;
4391;SDS011;2210;51.938;8.488;2023-08-20T00:16:30;15.80;;;11.07;;
4391;SDS011;2210;51.938;8.488;2023-08-20T00:20:37;11.17;;;8.60;;
4391;SDS011;2210;51.938;8.488;2023-08-20T00:24:37;9.03;;;7.40;;
4391;SDS011;2210;51.938;8.488;2023-08-20T00:28:41;11.50;;;7.23;;
4391;SDS011;2210;51.938;8.488;2023-08-20T00:32:41;8.87;;;5.47;;
4391;SDS011;2210;51.938;8.488;2023-08-20T00:36:45;6.10;;;4.43;;
4391;SDS011;2210;51.938;8.488;2023-08-20T00:40:49;7.63;;;4.53;;
4391;SDS011;2210;51.938;8.488;2023-08-20T00:44:49;5.47;;;4.10;;
4391;SDS011;2210;51.938;8.488;2023-08-20T00:48:58;7.30;;;4.13;;
4391;SDS011;2210;51.938;8.488;2023-08-20T00:52:59;7.87;;;3.90;;
4391;SDS011;2210;51.938;8.488;2023-08-20T00:56:59;4.87;;;3.10;;
4391;SDS011;2210;51.938;8.488;2023-08-20T01:01:01;3.70;;;3.23;;
4391;SDS011;2210;51.938;8.488;2023-08-20T01:05:01;6.97;;;3.17;;
4391;SDS011;2210;51.938;8.488;2023-08-20T01:13:41;5.50;;;2.90;;
4391;SDS011;2210;51.938;8.488;2023-08-20T01:17:48;5.60;;;3.07;;
4391;SDS011;2210;51.938;8.488;2023-08-20T01:30:34;7.33;;;3.20;;
4391;SDS011;2210;51.938;8.488;2023-08-20T01:34:38;9.93;;;2.57;;
4391;SDS011;2210;51.938;8.488;2023-08-20T01:38:41;4.50;;;3.50;;
4391;SDS011;2210;51.938;8.488;2023-08-20T01:42:42;8.67;;;3.83;;
4391;SDS011;2210;51.938;8.488;2023-08-20T01:46:48;7.97;;;3.43;;
4391;SDS011;2210;51.938;8.488;2023-08-20T01:50:48;5.27;;;3.33;;
4391;SDS011;2210;51.938;8.488;2023-08-20T01:54:58;5.13;;;3.43;;
4391;SDS011;2210;51.938;8.488;2023-08-20T01:58:59;7.13;;;3.30;;
4391;SDS011;2210;51.938;8.488;2023-08-20T02:03:02;7.23;;;3.43;;
4391;SDS011;2210;51.938;8.488;2023-08-20T02:07:03;6.73;;;3.93;;
4391;SDS011;2210;51.938;8.488;2023-08-20T02:11:13;5.80;;;4.10;;
4391;SDS011;2210;51.938;8.488;2023-08-20T02:15:13;5.40;;;4.03;;
4391;SDS011;2210;51.938;8.488;2023-08-20T02:19:14;7.97;;;4.80;;
4391;SDS011;2210;51.938;8.488;2023-08-20T02:23:20;7.37;;;5.10;;
4391;SDS011;2210;51.938;8.488;2023-08-20T02:27:20;13.70;;;5.37;;
4391;SDS011;2210;51.938;8.488;2023-08-20T02:31:23;8.30;;;5.77;;
4391;SDS011;2210;51.938;8.488;2023-08-20T02:35:24;8.90;;;5.20;;
4391;SDS011;2210;51.938;8.488;2023-08-20T02:39:24;6.40;;;5.30;;
4391;SDS011;2210;51.938;8.488;2023-08-20T02:43:25;7.57;;;5.80;;
4391;SDS011;2210;51.938;8.488;2023-08-20T02:47:25;6.73;;;4.73;;
4391;SDS011;2210;51.938;8.488;2023-08-20T02:51:25;6.37;;;4.70;;
4391;SDS011;2210;51.938;8.488;2023-08-20T02:55:26;7.03;;;5.27;;
4391;SDS011;2210;51.938;8.488;2023-08-20T02:59:26;9.83;;;6.00;;
4391;SDS011;2210;51.938;8.488;2023-08-20T03:03:35;7.30;;;5.10;;
4391;SDS011;2210;51.938;8.488;2023-08-20T03:07:39;7.30;;;4.87;;
4391;SDS011;2210;51.938;8.488;2023-08-20T03:11:39;5.43;;;4.73;;
4391;SDS011;2210;51.938;8.488;2023-08-20T03:15:39;6.93;;;4.00;;
4391;SDS011;2210;51.938;8.488;2023-08-20T03:19:52;5.57;;;4.00;;
4391;SDS011;2210;51.938;8.488;2023-08-20T03:23:56;6.67;;;4.20;;
4391;SDS011;2210;51.938;8.488;2023-08-20T03:27:56;11.00;;;5.13;;
4391;SDS011;2210;51.938;8.488;2023-08-20T03:32:03;5.67;;;4.10;;
4391;SDS011;2210;51.938;8.488;2023-08-20T03:36:07;4.93;;;3.90;;
4391;SDS011;2210;51.938;8.488;2023-08-20T03:40:13;6.87;;;4.70;;
4391;SDS011;2210;51.938;8.488;2023-08-20T03:44:26;8.93;;;4.47;;
4391;SDS011;2210;51.938;8.488;2023-08-20T03:48:27;4.17;;;3.50;;
4391;SDS011;2210;51.938;8.488;2023-08-20T03:52:39;7.40;;;4.10;;
4391;SDS011;2210;51.938;8.488;2023-08-20T03:56:40;6.70;;;4.07;;
4391;SDS011;2210;51.938;8.488;2023-08-20T04:00:49;8.40;;;4.70;;
4391;SDS011;2210;51.938;8.488;2023-08-20T04:04:52;9.93;;;4.77;;
4391;SDS011;2210;51.938;8.488;2023-08-20T04:08:53;6.57;;;5.00;;
4391;SDS011;2210;51.938;8.488;2023-08-20T04:12:53;5.73;;;4.17;;
4391;SDS011;2210;51.938;8.488;2023-08-20T04:16:53;8.93;;;4.47;;
4391;SDS011;2210;51.938;8.488;2023-08-20T04:20:57;6.57;;;3.97;;
4391;SDS011;2210;51.938;8.488;2023-08-20T04:24:57;5.60;;;4.23;;
4391;SDS011;2210;51.938;8.488;2023-08-20T04:28:58;5.37;;;4.00;;
4391;SDS011;2210;51.938;8.488;2023-08-20T04:32:58;10.47;;;4.13;;
4391;SDS011;2210;51.938;8.488;2023-08-20T04:36:58;7.57;;;4.70;;
4391;SDS011;2210;51.938;8.488;2023-08-20T04:41:05;5.87;;;4.53;;
4391;SDS011;2210;51.938;8.488;2023-08-20T04:45:05;8.30;;;4.37;;
4391;SDS011;2210;51.938;8.488;2023-08-20T04:49:12;8.10;;;4.27;;
4391;SDS011;2210;51.938;8.488;2023-08-20T04:53:13;5.53;;;4.07;;
4391;SDS011;2210;51.938;8.488;2023-08-20T04:57:22;4.20;;;3.40;;
4391;SDS011;2210;51.938;8.488;2023-08-20T05:01:23;6.90;;;3.40;;
4391;SDS011;2210;51.938;8.488;2023-08-20T05:05:23;5.87;;;3.60;;
4391;SDS011;2210;51.938;8.488;2023-08-20T05:09:24;6.80;;;3.47;;
4391;SDS011;2210;51.938;8.488;2023-08-20T05:13:24;4.80;;;2.90;;
4391;SDS011;2210;51.938;8.488;2023-08-20T05:17:28;6.87;;;2.80;;
4391;SDS011;2210;51.938;8.488;2023-08-20T05:21:28;4.17;;;2.70;;
4391;SDS011;2210;51.938;8.488;2023-08-20T05:25:28;7.03;;;3.27;;
4391;SDS011;2210;51.938;8.488;2023-08-20T05:29:28;4.10;;;2.67;;
4391;SDS011;2210;51.938;8.488;2023-08-20T05:33:38;7.83;;;4.23;;
4391;SDS011;2210;51.938;8.488;2023-08-20T05:37:47;6.90;;;3.80;;
4391;SDS011;2210;51.938;8.488;2023-08-20T05:41:54;5.37;;;3.40;;
4391;SDS011;2210;51.938;8.488;2023-08-20T05:45:54;5.23;;;2.97;;
4391;SDS011;2210;51.938;8.488;2023-08-20T05:50:01;3.20;;;2.70;;
4391;SDS011;2210;51.938;8.488;2023-08-20T05:54:13;3.00;;;2.70;;
4391;SDS011;2210;51.938;8.488;2023-08-20T05:58:25;6.60;;;2.70;;
4391;SDS011;2210;51.938;8.488;2023-08-20T06:02:26;4.80;;;3.20;;
4391;SDS011;2210;51.938;8.488;2023-08-20T06:06:26;3.67;;;2.30;;
4391;SDS011;2210;51.938;8.488;2023-08-20T06:10:26;4.77;;;2.93;;
4391;SDS011;2210;51.938;8.488;2023-08-20T06:14:26;6.13;;;2.77;;
4391;SDS011;2210;51.938;8.488;2023-08-20T06:18:27;5.20;;;2.97;;
4391;SDS011;2210;51.938;8.488;2023-08-20T06:22:27;4.53;;;2.23;;
4391;SDS011;2210;51.938;8.488;2023-08-20T06:26:27;5.97;;;3.50;;
4391;SDS011;2210;51.938;8.488;2023-08-20T06:30:27;6.43;;;3.30;;
4391;SDS011;2210;51.938;8.488;2023-08-20T06:34:28;7.67;;;3.83;;
4391;SDS011;2210;51.938;8.488;2023-08-20T06:38:28;4.83;;;2.93;;
4391;SDS011;2210;51.938;8.488;2023-08-20T06:42:29;4.20;;;3.20;;
4391;SDS011;2210;51.938;8.488;2023-08-20T06:46:38;3.63;;;3.30;;
4391;SDS011;2210;51.938;8.488;2023-08-20T06:50:41;3.77;;;3.20;;
4391;SDS011;2210;51.938;8.488;2023-08-20T06:54:41;8.70;;;3.70;;
4391;SDS011;2210;51.938;8.488;2023-08-20T06:58:54;5.93;;;4.40;;
4391;SDS011;2210;51.938;8.488;2023-08-20T07:02:57;4.27;;;3.87;;
4391;SDS011;2210;51.938;8.488;2023-08-20T07:06:57;6.40;;;4.17;;
4391;SDS011;2210;51.938;8.488;2023-08-20T07:10:58;6.67;;;4.70;;
4391;SDS011;2210;51.938;8.488;2023-08-20T07:15:05;6.60;;;5.57;;
4391;SDS011;2210;51.938;8.488;2023-08-20T07:19:06;7.47;;;5.27;;
4391;SDS011;2210;51.938;8.488;2023-08-20T07:23:10;8.20;;;5.30;;
4391;SDS011;2210;51.938;8.488;2023-08-20T07:27:14;6.80;;;5.50;;
4391;SDS011;2210;51.938;8.488;2023-08-20T07:31:20;8.47;;;5.57;;
4391;SDS011;2210;51.938;8.488;2023-08-20T07:35:21;7.93;;;4.80;;
4391;SDS011;2210;51.938;8.488;2023-08-20T07:39:27;7.43;;;5.50;;
4391;SDS011;2210;51.938;8.488;2023-08-20T07:43:27;9.30;;;6.60;;
4391;SDS011;2210;51.938;8.488;2023-08-20T07:47:28;8.20;;;6.37;;
4391;SDS011;2210;51.938;8.488;2023-08-20T07:51:35;10.63;;;7.53;;
4391;SDS011;2210;51.938;8.488;2023-08-20T07:55:41;11.53;;;7.57;;
4391;SDS011;2210;51.938;8.488;2023-08-20T07:59:42;13.23;;;8.43;;
4391;SDS011;2210;51.938;8.488;2023-08-20T08:03:42;9.80;;;8.23;;
4391;SDS011;2210;51.938;8.488;2023-08-20T08:07:45;8.60;;;6.90;;
4391;SDS011;2210;51.938;8.488;2023-08-20T08:11:46;12.00;;;9.23;;
4391;SDS011;2210;51.938;8.488;2023-08-20T08:15:46;15.30;;;8.77;;
4391;SDS011;2210;51.938;8.488;2023-08-20T08:19:46;13.00;;;8.53;;
4391;SDS011;2210;51.938;8.488;2023-08-20T08:23:52;9.50;;;8.47;;
4391;SDS011;2210;51.938;8.488;2023-08-20T08:27:53;12.90;;;8.57;;
4391;SDS011;2210;51.938;8.488;2023-08-20T08:31:53;12.50;;;10.00;;
4391;SDS011;2210;51.938;8.488;2023-08-20T08:35:53;12.90;;;10.40;;
4391;SDS011;2210;51.938;8.488;2023-08-20T08:39:56;13.13;;;10.07;;
4391;SDS011;2210;51.938;8.488;2023-08-20T08:44:00;12.33;;;9.93;;
4391;SDS011;2210;51.938;8.488;2023-08-20T08:48:00;9.00;;;8.00;;
4391;SDS011;2210;51.938;8.488;2023-08-20T08:52:11;16.90;;;8.83;;
4391;SDS011;2210;51.938;8.488;2023-08-20T08:56:12;14.90;;;10.07;;
4391;SDS011;2210;51.938;8.488;2023-08-20T09:00:19;12.13;;;9.37;;
4391;SDS011;2210;51.938;8.488;2023-08-20T09:04:22;12.10;;;9.23;;
4391;SDS011;2210;51.938;8.488;2023-08-20T09:08:27;11.40;;;8.70;;
4391;SDS011;2210;51.938;8.488;2023-08-20T09:12:28;8.57;;;7.63;;
4391;SDS011;2210;51.938;8.488;2023-08-20T09:16:43;13.53;;;8.70;;
4391;SDS011;2210;51.938;8.488;2023-08-20T09:20:43;8.00;;;7.10;;
4391;SDS011;2210;51.938;8.488;2023-08-20T09:24:53;7.53;;;6.80;;
4391;SDS011;2210;51.938;8.488;2023-08-20T09:28:57;10.40;;;6.63;;
4391;SDS011;2210;51.938;8.488;2023-08-20T09:33:05;8.13;;;6.53;;
4391;SDS011;2210;51.938;8.488;2023-08-20T09:37:14;10.23;;;8.30;;
4391;SDS011;2210;51.938;8.488;2023-08-20T09:41:16;7.67;;;6.17;;
4391;SDS011;2210;51.938;8.488;2023-08-20T09:45:24;7.63;;;6.80;;
4391;SDS011;2210;51.938;8.488;2023-08-20T09:49:32;6.50;;;5.90;;
4391;SDS011;2210;51.938;8.488;2023-08-20T09:53:56;8.37;;;6.70;;
4391;SDS011;2210;51.938;8.488;2023-08-20T09:58:22;5.27;;;4.70;;
4391;SDS011;2210;51.938;8.488;2023-08-20T10:02:28;6.33;;;5.70;;
4391;SDS011;2210;51.938;8.488;2023-08-20T10:06:29;7.30;;;6.43;;
4391;SDS011;2210;51.938;8.488;2023-08-20T10:10:31;7.23;;;5.00;;
4391;SDS011;2210;51.938;8.488;2023-08-20T10:14:32;6.57;;;4.70;;
4391;SDS011;2210;51.938;8.488;2023-08-20T10:18:34;5.50;;;4.70;;
4391;SDS011;2210;51.938;8.488;2023-08-20T10:22:53;6.13;;;4.47;;
4391;SDS011;2210;51.938;8.488;2023-08-20T10:31:34;5.67;;;2.90;;
4391;SDS011;2210;51.938;8.488;2023-08-20T10:35:47;4.03;;;3.73;;
4391;SDS011;2210;51.938;8.488;2023-08-20T10:39:53;4.40;;;4.00;;
4391;SDS011;2210;51.938;8.488;2023-08-20T10:43:58;4.70;;;4.20;;
4391;SDS011;2210;51.938;8.488;2023-08-20T10:48:11;5.40;;;4.17;;
4391;SDS011;2210;51.938;8.488;2023-08-20T10:52:18;5.10;;;4.30;;
4391;SDS011;2210;51.938;8.488;2023-08-20T10:56:19;4.40;;;3.70;;
4391;SDS011;2210;51.938;8.488;2023-08-20T11:00:19;3.60;;;3.30;;
4391;SDS011;2210;51.938;8.488;2023-08-20T11:04:20;4.93;;;4.13;;
4391;SDS011;2210;51.938;8.488;2023-08-20T11:08:35;4.67;;;4.27;;
4391;SDS011;2210;51.938;8.488;2023-08-20T11:12:46;4.30;;;3.90;;
4391;SDS011;2210;51.938;8.488;2023-08-20T11:16:53;7.63;;;3.67;;
4391;SDS011;2210;51.938;8.488;2023-08-20T11:20:54;5.10;;;3.73;;
4391;SDS011;2210;51.938;8.488;2023-08-20T11:24:55;5.40;;;3.80;;
4391;SDS011;2210;51.938;8.488;2023-08-20T11:28:56;5.83;;;3.50;;
4391;SDS011;2210;51.938;8.488;2023-08-20T11:32:56;4.90;;;3.70;;
4391;SDS011;2210;51.938;8.488;2023-08-20T11:37:00;5.63;;;4.27;;
4391;SDS011;2210;51.938;8.488;2023-08-20T11:45:58;5.10;;;4.20;;
4391;SDS011;2210;51.938;8.488;2023-08-20T11:50:04;4.60;;;4.20;;
4391;SDS011;2210;51.938;8.488;2023-08-20T11:54:31;6.00;;;4.30;;
4391;SDS011;2210;51.938;8.488;2023-08-20T11:58:41;5.03;;;4.00;;
4391;SDS011;2210;51.938;8.488;2023-08-20T12:02:41;5.40;;;4.90;;
4391;SDS011;2210;51.938;8.488;2023-08-20T12:06:45;4.27;;;3.80;;
4391;SDS011;2210;51.938;8.488;2023-08-20T12:11:05;5.13;;;4.37;;
4391;SDS011;2210;51.938;8.488;2023-08-20T12:15:09;4.80;;;4.00;;
4391;SDS011;2210;51.938;8.488;2023-08-20T12:19:15;4.03;;;3.63;;
4391;SDS011;2210;51.938;8.488;2023-08-20T12:23:19;5.97;;;4.50;;
4391;SDS011;2210;51.938;8.488;2023-08-20T12:27:19;5.73;;;4.53;;
4391;SDS011;2210;51.938;8.488;2023-08-20T12:31:25;4.57;;;3.93;;
4391;SDS011;2210;51.938;8.488;2023-08-20T12:35:26;3.80;;;3.40;;
4391;SDS011;2210;51.938;8.488;2023-08-20T12:39:26;4.60;;;3.97;;
4391;SDS011;2210;51.938;8.488;2023-08-20T12:43:26;5.00;;;3.53;;
4391;SDS011;2210;51.938;8.488;2023-08-20T12:47:27;4.77;;;3.50;;
4391;SDS011;2210;51.938;8.488;2023-08-20T12:51:39;4.87;;;3.60;;
4391;SDS011;2210;51.938;8.488;2023-08-20T12:55:40;4.17;;;3.73;;
4391;SDS011;2210;51.938;8.488;2023-08-20T12:59:49;4.73;;;3.70;;
4391;SDS011;2210;51.938;8.488;2023-08-20T13:03:52;7.57;;;3.50;;
4391;SDS011;2210;51.938;8.488;2023-08-20T13:07:53;4.43;;;3.70;;
4391;SDS011;2210;51.938;8.488;2023-08-20T13:11:56;4.27;;;3.87;;
4391;SDS011;2210;51.938;8.488;2023-08-20T13:16:00;6.00;;;3.27;;
4391;SDS011;2210;51.938;8.488;2023-08-20T13:20:05;5.43;;;3.33;;
4391;SDS011;2210;51.938;8.488;2023-08-20T13:24:12;7.40;;;6.60;;
4391;SDS011;2210;51.938;8.488;2023-08-20T13:28:12;5.23;;;3.43;;
4391;SDS011;2210;51.938;8.488;2023-08-20T13:32:16;5.73;;;4.33;;
4391;SDS011;2210;51.938;8.488;2023-08-20T13:36:19;4.13;;;3.73;;
4391;SDS011;2210;51.938;8.488;2023-08-20T13:40:20;4.40;;;3.70;;
4391;SDS011;2210;51.938;8.488;2023-08-20T13:44:23;4.07;;;3.67;;
4391;SDS011;2210;51.938;8.488;2023-08-20T13:48:23;6.23;;;4.20;;
4391;SDS011;2210;51.938;8.488;2023-08-20T13:52:23;4.10;;;3.70;;
4391;SDS011;2210;51.938;8.488;2023-08-20T13:56:27;3.80;;;3.40;;
4391;SDS011;2210;51.938;8.488;2023-08-20T14:00:27;5.77;;;4.53;;
4391;SDS011;2210;51.938;8.488;2023-08-20T14:04:27;5.93;;;4.17;;
4391;SDS011;2210;51.938;8.488;2023-08-20T14:08:28;5.77;;;3.80;;
4391;SDS011;2210;51.938;8.488;2023-08-20T14:12:28;5.10;;;4.40;;
4391;SDS011;2210;51.938;8.488;2023-08-20T14:16:31;5.00;;;3.63;;
4391;SDS011;2210;51.938;8.488;2023-08-20T14:20:32;5.77;;;4.13;;
4391;SDS011;2210;51.938;8.488;2023-08-20T14:24:41;4.30;;;3.90;;
4391;SDS011;2210;51.938;8.488;2023-08-20T14:28:49;4.27;;;3.80;;
4391;SDS011;2210;51.938;8.488;2023-08-20T14:32:56;3.50;;;3.20;;
4391;SDS011;2210;51.938;8.488;2023-08-20T14:36:56;4.60;;;3.73;;
4391;SDS011;2210;51.938;8.488;2023-08-20T14:41:05;4.83;;;3.83;;
4391;SDS011;2210;51.938;8.488;2023-08-20T14:45:06;3.50;;;3.20;;
4391;SDS011;2210;51.938;8.488;2023-08-20T14:49:06;5.17;;;3.40;;
4391;SDS011;2210;51.938;8.488;2023-08-20T14:53:14;3.83;;;3.50;;
4391;SDS011;2210;51.938;8.488;2023-08-20T14:57:14;4.27;;;3.87;;
4391;SDS011;2210;51.938;8.488;2023-08-20T15:01:17;4.53;;;4.13;;
4391;SDS011;2210;51.938;8.488;2023-08-20T15:05:17;4.40;;;3.60;;
4391;SDS011;2210;51.938;8.488;2023-08-20T15:09:23;6.50;;;4.00;;
4391;SDS011;2210;51.938;8.488;2023-08-20T15:13:39;3.90;;;3.50;;
4391;SDS011;2210;51.938;8.488;2023-08-20T15:17:39;4.63;;;4.07;;
4391;SDS011;2210;51.938;8.488;2023-08-20T15:21:48;4.57;;;3.60;;
4391;SDS011;2210;51.938;8.488;2023-08-20T15:25:55;4.83;;;4.07;;
4391;SDS011;2210;51.938;8.488;2023-08-20T15:29:58;4.30;;;3.90;;
4391;SDS011;2210;51.938;8.488;2023-08-20T15:33:59;4.60;;;4.20;;
4391;SDS011;2210;51.938;8.488;2023-08-20T15:38:05;5.27;;;4.73;;
4391;SDS011;2210;51.938;8.488;2023-08-20T15:42:17;4.80;;;4.10;;
4391;SDS011;2210;51.938;8.488;2023-08-20T15:46:22;3.80;;;3.50;;
4391;SDS011;2210;51.938;8.488;2023-08-20T15:50:29;6.00;;;4.07;;
4391;SDS011;2210;51.938;8.488;2023-08-20T15:54:29;4.43;;;3.67;;
4391;SDS011;2210;51.938;8.488;2023-08-20T15:58:36;7.97;;;3.93;;
4391;SDS011;2210;51.938;8.488;2023-08-20T16:02:36;3.80;;;3.50;;
4391;SDS011;2210;51.938;8.488;2023-08-20T16:06:36;4.70;;;4.30;;
4391;SDS011;2210;51.938;8.488;2023-08-20T16:10:37;4.10;;;3.80;;
4391;SDS011;2210;51.938;8.488;2023-08-20T16:14:37;5.03;;;4.30;;
4391;SDS011;2210;51.938;8.488;2023-08-20T16:18:38;4.63;;;4.23;;
4391;SDS011;2210;51.938;8.488;2023-08-20T16:22:41;5.47;;;4.53;;
4391;SDS011;2210;51.938;8.488;2023-08-20T16:26:41;4.73;;;4.23;;
4391;SDS011;2210;51.938;8.488;2023-08-20T16:30:45;6.67;;;4.17;;
4391;SDS011;2210;51.938;8.488;2023-08-20T16:34:56;6.50;;;4.33;;
4391;SDS011;2210;51.938;8.488;2023-08-20T16:38:56;5.00;;;4.50;;
4391;SDS011;2210;51.938;8.488;2023-08-20T16:43:02;5.20;;;4.70;;
4391;SDS011;2210;51.938;8.488;2023-08-20T16:47:06;5.73;;;4.47;;
4391;SDS011;2210;51.938;8.488;2023-08-20T16:51:07;4.90;;;4.50;;
4391;SDS011;2210;51.938;8.488;2023-08-20T16:55:07;4.70;;;4.30;;
4391;SDS011;2210;51.938;8.488;2023-08-20T16:59:07;4.67;;;4.27;;
4391;SDS011;2210;51.938;8.488;2023-08-20T17:03:08;4.93;;;4.43;;
4391;SDS011;2210;51.938;8.488;2023-08-20T17:07:08;4.75;;;3.90;;
4391;SDS011;2210;51.938;8.488;2023-08-20T17:11:09;4.00;;;3.70;;
4391;SDS011;2210;51.938;8.488;2023-08-20T17:15:10;13.70;;;4.07;;
4391;SDS011;2210;51.938;8.488;2023-08-20T17:19:13;4.17;;;3.60;;
4391;SDS011;2210;51.938;8.488;2023-08-20T17:23:20;5.10;;;4.30;;
4391;SDS011;2210;51.938;8.488;2023-08-20T17:27:23;4.80;;;3.80;;
4391;SDS011;2210;51.938;8.488;2023-08-20T17:31:26;4.60;;;3.70;;
4391;SDS011;2210;51.938;8.488;2023-08-20T17:35:27;4.17;;;3.63;;
4391;SDS011;2210;51.938;8.488;2023-08-20T17:39:27;4.60;;;3.20;;
4391;SDS011;2210;51.938;8.488;2023-08-20T17:43:31;3.53;;;2.80;;
4391;SDS011;2210;51.938;8.488;2023-08-20T17:47:39;3.10;;;2.80;;
4391;SDS011;2210;51.938;8.488;2023-08-20T17:51:47;3.43;;;2.90;;
4391;SDS011;2210;51.938;8.488;2023-08-20T17:55:54;2.67;;;2.33;;
4391;SDS011;2210;51.938;8.488;2023-08-20T17:59:55;6.10;;;3.43;;
4391;SDS011;2210;51.938;8.488;2023-08-20T18:03:55;5.40;;;3.47;;
4391;SDS011;2210;51.938;8.488;2023-08-20T18:07:56;4.60;;;2.60;;
4391;SDS011;2210;51.938;8.488;2023-08-20T18:11:56;3.70;;;2.73;;
4391;SDS011;2210;51.938;8.488;2023-08-20T18:15:56;2.60;;;2.30;;
4391;SDS011;2210;51.938;8.488;2023-08-20T18:19:56;3.03;;;2.70;;
4391;SDS011;2210;51.938;8.488;2023-08-20T18:23:57;2.23;;;1.97;;
4391;SDS011;2210;51.938;8.488;2023-08-20T18:27:57;4.97;;;2.57;;
4391;SDS011;2210;51.938;8.488;2023-08-20T18:31:57;5.47;;;2.53;;
4391;SDS011;2210;51.938;8.488;2023-08-20T18:35:58;3.73;;;2.17;;
4391;SDS011;2210;51.938;8.488;2023-08-20T18:40:02;2.80;;;2.23;;
4391;SDS011;2210;51.938;8.488;2023-08-20T18:44:04;3.30;;;1.80;;
4391;SDS011;2210;51.938;8.488;2023-08-20T18:48:07;6.07;;;2.20;;
4391;SDS011;2210;51.938;8.488;2023-08-20T18:52:07;2.43;;;2.10;;
4391;SDS011;2210;51.938;8.488;2023-08-20T18:56:08;3.20;;;1.90;;
4391;SDS011;2210;51.938;8.488;2023-08-20T19:00:08;3.20;;;1.83;;
4391;SDS011;2210;51.938;8.488;2023-08-20T19:04:12;3.13;;;2.00;;
4391;SDS011;2210;51.938;8.488;2023-08-20T19:08:21;4.83;;;1.70;;
4391;SDS011;2210;51.938;8.488;2023-08-20T19:12:22;5.80;;;1.97;;
4391;SDS011;2210;51.938;8.488;2023-08-20T19:16:23;3.87;;;2.30;;
4391;SDS011;2210;51.938;8.488;2023-08-20T19:20:23;2.73;;;1.77;;
4391;SDS011;2210;51.938;8.488;2023-08-20T19:24:23;2.03;;;1.70;;
4391;SDS011;2210;51.938;8.488;2023-08-20T19:28:30;1.90;;;1.50;;
4391;SDS011;2210;51.938;8.488;2023-08-20T19:32:30;2.87;;;1.90;;
4391;SDS011;2210;51.938;8.488;2023-08-20T19:36:43;2.00;;;1.37;;
4391;SDS011;2210;51.938;8.488;2023-08-20T19:40:46;1.60;;;1.17;;
4391;SDS011;2210;51.938;8.488;2023-08-20T19:44:47;1.80;;;1.40;;
4391;SDS011;2210;51.938;8.488;2023-08-20T19:48:56;2.70;;;1.83;;
4391;SDS011;2210;51.938;8.488;2023-08-20T19:52:57;3.30;;;1.60;;
4391;SDS011;2210;51.938;8.488;2023-08-20T19:57:03;2.27;;;1.60;;
4391;SDS011;2210;51.938;8.488;2023-08-20T20:01:20;1.60;;;1.50;;
4391;SDS011;2210;51.938;8.488;2023-08-20T20:05:27;3.37;;;1.50;;
4391;SDS011;2210;51.938;8.488;2023-08-20T20:09:35;3.93;;;1.70;;
4391;SDS011;2210;51.938;8.488;2023-08-20T20:13:38;2.97;;;1.70;;
4391;SDS011;2210;51.938;8.488;2023-08-20T20:17:39;3.23;;;1.50;;
4391;SDS011;2210;51.938;8.488;2023-08-20T20:21:42;2.90;;;1.40;;
4391;SDS011;2210;51.938;8.488;2023-08-20T20:25:42;2.83;;;1.50;;
4391;SDS011;2210;51.938;8.488;2023-08-20T20:29:46;4.00;;;1.43;;
4391;SDS011;2210;51.938;8.488;2023-08-20T20:33:49;3.43;;;1.23;;
4391;SDS011;2210;51.938;8.488;2023-08-20T20:37:58;1.57;;;1.20;;
4391;SDS011;2210;51.938;8.488;2023-08-20T20:41:59;2.40;;;1.30;;
4391;SDS011;2210;51.938;8.488;2023-08-20T20:45:59;5.10;;;1.20;;
4391;SDS011;2210;51.938;8.488;2023-08-20T20:50:06;2.00;;;1.17;;
4391;SDS011;2210;51.938;8.488;2023-08-20T20:54:07;2.40;;;1.07;;
4391;SDS011;2210;51.938;8.488;2023-08-20T20:58:10;4.80;;;1.50;;
4391;SDS011;2210;51.938;8.488;2023-08-20T21:02:10;2.20;;;1.10;;
4391;SDS011;2210;51.938;8.488;2023-08-20T21:06:11;5.30;;;1.20;;
4391;SDS011;2210;51.938;8.488;2023-08-20T21:10:11;2.25;;;1.30;;
4391;SDS011;2210;51.938;8.488;2023-08-20T21:14:15;3.40;;;1.10;;
4391;SDS011;2210;51.938;8.488;2023-08-20T21:18:18;1.57;;;1.20;;
4391;SDS011;2210;51.938;8.488;2023-08-20T21:22:21;2.13;;;1.03;;
4391;SDS011;2210;51.938;8.488;2023-08-20T21:26:25;4.00;;;1.20;;
4391;SDS011;2210;51.938;8.488;2023-08-20T21:30:25;2.83;;;1.10;;
4391;SDS011;2210;51.938;8.488;2023-08-20T21:34:26;2.30;;;1.03;;
4391;SDS011;2210;51.938;8.488;2023-08-20T21:38:26;0.93;;;0.80;;
4391;SDS011;2210;51.938;8.488;2023-08-20T21:42:26;1.50;;;1.00;;
4391;SDS011;2210;51.938;8.488;2023-08-20T21:46:27;3.73;;;0.90;;
4391;SDS011;2210;51.938;8.488;2023-08-20T21:50:27;1.83;;;0.90;;
4391;SDS011;2210;51.938;8.488;2023-08-20T21:54:28;5.63;;;1.60;;
4391;SDS011;2210;51.938;8.488;2023-08-20T21:58:31;2.03;;;1.10;;
4391;SDS011;2210;51.938;8.488;2023-08-20T22:02:35;3.63;;;1.90;;
4391;SDS011;2210;51.938;8.488;2023-08-20T22:06:44;2.40;;;0.90;;
4391;SDS011;2210;51.938;8.488;2023-08-20T22:10:47;1.67;;;0.90;;
4391;SDS011;2210;51.938;8.488;2023-08-20T22:14:50;3.17;;;1.13;;
4391;SDS011;2210;51.938;8.488;2023-08-20T22:18:56;2.73;;;0.90;;
4391;SDS011;2210;51.938;8.488;2023-08-20T22:23:00;1.80;;;0.90;;
4391;SDS011;2210;51.938;8.488;2023-08-20T22:27:06;5.23;;;1.20;;
4391;SDS011;2210;51.938;8.488;2023-08-20T22:31:10;1.10;;;0.90;;
4391;SDS011;2210;51.938;8.488;2023-08-20T22:35:25;3.40;;;0.97;;
4391;SDS011;2210;51.938;8.488;2023-08-20T22:39:26;2.40;;;1.27;;
4391;SDS011;2210;51.938;8.488;2023-08-20T22:43:26;3.13;;;0.90;;
4391;SDS011;2210;51.938;8.488;2023-08-20T22:47:38;2.15;;;1.00;;
4391;SDS011;2210;51.938;8.488;2023-08-20T22:51:57;2.13;;;1.20;;
4391;SDS011;2210;51.938;8.488;2023-08-20T22:55:57;2.67;;;1.00;;
4391;SDS011;2210;51.938;8.488;2023-08-20T22:59:58;2.10;;;0.93;;
4391;SDS011;2210;51.938;8.488;2023-08-20T23:03:58;2.63;;;1.33;;
4391;SDS011;2210;51.938;8.488;2023-08-20T23:08:05;3.63;;;0.93;;
4391;SDS011;2210;51.938;8.488;2023-08-20T23:12:06;6.47;;;1.33;;
4391;SDS011;2210;51.938;8.488;2023-08-20T23:16:09;3.47;;;1.13;;
4391;SDS011;2210;51.938;8.488;2023-08-20T23:20:22;2.37;;;0.97;;
4391;SDS011;2210;51.938;8.488;2023-08-20T23:24:22;1.73;;;0.90;;
4391;SDS011;2210;51.938;8.488;2023-08-20T23:28:28;2.00;;;1.10;;
4391;SDS011;2210;51.938;8.488;2023-08-20T23:32:29;2.03;;;0.90;;
4391;SDS011;2210;51.938;8.488;2023-08-20T23:36:29;7.70;;;1.00;;
4391;SDS011;2210;51.938;8.488;2023-08-20T23:40:31;4.23;;;1.30;;
4391;SDS011;2210;51.938;8.488;2023-08-20T23:44:35;1.77;;;0.90;;
4391;SDS011;2210;51.938;8.488;2023-08-20T23:48:36;2.40;;;1.20;;
4391;SDS011;2210;51.938;8.488;2023-08-20T23:52:36;6.10;;;0.90;;
4391;SDS011;2210;51.938;8.488;2023-08-20T23:56:49;1.47;;;0.90;;
